Terminal Aerodrome Forecast
Issued by NWS Corpus Christi, TX

Current Version | Previous Version | Text Only | Print | Product List | Glossary Off
Versions: 1 2 3 4 5 6 7 8 9 10 11 12 13 14 15 16 17 18

475
FTUS44 KCRP 211720
TAFVCT
TAF
KVCT 211720Z 2118/2218 17011KT P6SM VCSH SCT030
      TEMPO 2118/2122 -SHRA SCT025 BKN035
     FM212300 15011KT P6SM SCT025
     FM220500 16004KT 2SM BR BKN008
     FM221100 VRB04KT 2SM BR VCSH BKN011
      TEMPO 2211/2214 4SM -SHRA BR BKN011
     FM221600 35016KT P6SM SCT050=

USA.gov is the U.S. government's official web portal to all federal, state and local government web resources and services.